createdAt,value
2022-11-17T00:00:01.547Z,1004.4
2022-11-17T00:01:01.116Z,1004.34
2022-11-17T00:02:01.005Z,1004.39
2022-11-17T00:03:00.891Z,1004.37
2022-11-17T00:04:01.373Z,1004.32
2022-11-17T00:05:01.085Z,1004.26
2022-11-17T00:06:01.509Z,1004.28
2022-11-17T00:07:01.134Z,1004.23
2022-11-17T00:08:01.111Z,1004.23
2022-11-17T00:09:01.225Z,1004.19
2022-11-17T00:10:01.064Z,1004.19
2022-11-17T00:11:01.114Z,1004.12
2022-11-17T00:12:01.125Z,1004.13
2022-11-17T00:13:01.048Z,1004.11
2022-11-17T00:14:01.153Z,1004.07
2022-11-17T00:15:01.314Z,1004.07
2022-11-17T00:16:01.826Z,1004.08
2022-11-17T00:17:01.182Z,1004.08
2022-11-17T00:18:02.985Z,1004.11
2022-11-17T00:19:01.972Z,1004.14
2022-11-17T00:20:01.111Z,1004.15
2022-11-17T00:21:01.861Z,1004.14
2022-11-17T00:22:01.051Z,1004.14
2022-11-17T00:23:01.123Z,1004.13
2022-11-17T00:24:03.911Z,1004.11
2022-11-17T00:25:02.080Z,1004.09
2022-11-17T00:26:01.115Z,1004.09
2022-11-17T00:27:01.914Z,1004.07
2022-11-17T00:28:01.132Z,1004.09
2022-11-17T00:29:01.341Z,1004.05
2022-11-17T00:30:02.147Z,1004.08
2022-11-17T00:31:01.167Z,1004.09
2022-11-17T00:32:01.871Z,1004.08
2022-11-17T00:33:01.940Z,1004.05
2022-11-17T00:34:01.534Z,1004.08
2022-11-17T00:35:01.164Z,1004.05
2022-11-17T00:36:01.077Z,1004.07
2022-11-17T00:37:01.087Z,1004.08
2022-11-17T00:38:00.724Z,1004.05
2022-11-17T00:39:00.521Z,1004.07
2022-11-17T00:40:01.309Z,1004.05
2022-11-17T00:41:01.210Z,1004.04
2022-11-17T00:42:04.026Z,1004.02
2022-11-17T00:43:02.068Z,1003.99
2022-11-17T00:44:03.978Z,1003.97
2022-11-17T00:45:01.123Z,1004.01
2022-11-17T00:46:01.129Z,1003.99
2022-11-17T00:47:01.095Z,1004.02
2022-11-17T00:48:02.072Z,1004.07
2022-11-17T00:49:01.613Z,1004.06
2022-11-17T00:50:01.193Z,1004.03
2022-11-17T00:51:01.162Z,1004.04
2022-11-17T00:52:01.200Z,1004.11
2022-11-17T00:53:01.448Z,1004.05
2022-11-17T00:54:01.799Z,1004.02
2022-11-17T00:55:01.868Z,1003.99
2022-11-17T00:56:02.578Z,1004.05
2022-11-17T00:57:01.091Z,1004.09
2022-11-17T00:58:01.130Z,1004.01
2022-11-17T00:59:02.266Z,1004.04
2022-11-17T01:00:03.997Z,1004.02
2022-11-17T01:01:01.435Z,1003.99
2022-11-17T01:02:01.622Z,1004.03
2022-11-17T01:03:02.193Z,1004.04
2022-11-17T01:04:01.275Z,1004.05
2022-11-17T01:05:08.208Z,1003.99
2022-11-17T01:06:05.802Z,1004.07
2022-11-17T01:07:01.961Z,1004.05
2022-11-17T01:08:04.720Z,1004
2022-11-17T01:09:01.088Z,1003.99
2022-11-17T01:10:01.098Z,1004.02
2022-11-17T01:11:09.167Z,1004.01
2022-11-17T01:12:01.110Z,1003.98
2022-11-17T01:13:01.097Z,1003.97
2022-11-17T01:14:01.106Z,1004.01
2022-11-17T01:15:01.123Z,1003.95
2022-11-17T01:16:11.595Z,1003.97
2022-11-17T01:17:01.269Z,1004.04
2022-11-17T01:18:01.080Z,1003.99
2022-11-17T01:19:01.077Z,1003.99
2022-11-17T01:20:01.140Z,1004
2022-11-17T01:21:15.395Z,1004.01
2022-11-17T01:22:01.166Z,1004
2022-11-17T01:23:01.223Z,1003.96
2022-11-17T01:24:01.213Z,1003.98
2022-11-17T01:25:01.408Z,1004
2022-11-17T01:26:16.740Z,1003.98
2022-11-17T01:27:02.157Z,1004
2022-11-17T01:28:04.549Z,1003.98
2022-11-17T01:29:02.808Z,1004.01
2022-11-17T01:30:01.061Z,1004
2022-11-17T01:31:01.090Z,1004
2022-11-17T01:32:01.131Z,1003.99
2022-11-17T01:33:04.070Z,1003.97
2022-11-17T01:34:01.053Z,1004
2022-11-17T01:35:03.879Z,1003.98
2022-11-17T01:36:01.063Z,1003.98
2022-11-17T01:37:01.179Z,1003.98
2022-11-17T01:38:02.392Z,1004.03
2022-11-17T01:39:00.868Z,1004.01
2022-11-17T01:40:01.205Z,1004.02
2022-11-17T01:41:01.112Z,1004.02
2022-11-17T01:42:02.647Z,1003.96
2022-11-17T01:43:01.927Z,1003.92
2022-11-17T01:44:00.860Z,1003.9
2022-11-17T01:45:01.151Z,1003.93
2022-11-17T01:46:01.996Z,1003.8
2022-11-17T01:47:01.498Z,1003.81
2022-11-17T01:48:01.820Z,1003.89
2022-11-17T01:49:01.303Z,1003.85
2022-11-17T01:50:01.205Z,1003.87
2022-11-17T01:51:02.039Z,1003.86
2022-11-17T01:52:02.399Z,1003.89
2022-11-17T01:53:01.797Z,1003.91
2022-11-17T01:54:01.213Z,1003.88
2022-11-17T01:55:02.034Z,1003.87
2022-11-17T01:56:01.142Z,1003.88
2022-11-17T01:57:03.979Z,1003.87
2022-11-17T01:58:01.558Z,1003.87
2022-11-17T01:59:01.198Z,1003.86
2022-11-17T02:00:02.156Z,1003.83
2022-11-17T02:01:02.103Z,1003.88
2022-11-17T02:02:02.495Z,1003.87
2022-11-17T02:03:01.282Z,1003.8
2022-11-17T02:04:01.024Z,1003.76
2022-11-17T02:05:01.128Z,1003.76
2022-11-17T02:06:01.796Z,1003.76
2022-11-17T02:07:01.798Z,1003.81
2022-11-17T02:08:01.671Z,1003.71
2022-11-17T02:09:01.056Z,1003.66
2022-11-17T02:10:01.816Z,1003.68
2022-11-17T02:11:01.370Z,1003.65
2022-11-17T02:12:02.008Z,1003.61
2022-11-17T02:13:01.993Z,1003.62
2022-11-17T02:14:01.093Z,1003.61
2022-11-17T02:15:01.056Z,1003.64
2022-11-17T02:16:01.890Z,1003.64
2022-11-17T02:17:10.129Z,1003.66
2022-11-17T02:18:03.984Z,1003.65
2022-11-17T02:19:02.017Z,1003.66
2022-11-17T02:20:01.118Z,1003.67
2022-11-17T02:21:01.128Z,1003.68
2022-11-17T02:22:01.126Z,1003.69
2022-11-17T02:23:01.156Z,1003.68
2022-11-17T02:24:01.426Z,1003.67
2022-11-17T02:25:01.999Z,1003.71
2022-11-17T02:26:01.184Z,1003.75
2022-11-17T02:27:01.011Z,1003.65
2022-11-17T02:28:00.866Z,1003.73
2022-11-17T02:29:00.630Z,1003.68
2022-11-17T02:30:00.483Z,1003.66
2022-11-17T02:31:00.288Z,1003.68
2022-11-17T02:32:00.152Z,1003.74
2022-11-17T02:32:59.796Z,1003.73
2022-11-17T02:34:01.606Z,1003.7
2022-11-17T02:35:01.488Z,1003.73
2022-11-17T02:36:01.409Z,1003.67
2022-11-17T02:37:01.107Z,1003.6
2022-11-17T02:38:01.117Z,1003.64
2022-11-17T02:39:01.124Z,1003.62
2022-11-17T02:40:01.146Z,1003.62
2022-11-17T02:41:04.015Z,1003.57
2022-11-17T02:42:01.544Z,1003.56
2022-11-17T02:43:02.498Z,1003.58
2022-11-17T02:44:01.374Z,1003.58
2022-11-17T02:45:01.198Z,1003.59
2022-11-17T02:46:01.160Z,1003.54
2022-11-17T02:47:01.863Z,1003.55
2022-11-17T02:48:01.081Z,1003.55
2022-11-17T02:49:01.930Z,1003.62
2022-11-17T02:50:01.802Z,1003.52
2022-11-17T02:51:01.147Z,1003.47
2022-11-17T02:52:01.912Z,1003.52
2022-11-17T02:53:01.953Z,1003.53
2022-11-17T02:54:02.124Z,1003.53
2022-11-17T02:55:01.129Z,1003.51
2022-11-17T02:56:01.136Z,1003.43
2022-11-17T02:57:01.141Z,1003.42
2022-11-17T02:58:01.943Z,1003.47
2022-11-17T02:59:01.163Z,1003.43
2022-11-17T03:00:01.230Z,1003.41
2022-11-17T03:01:01.960Z,1003.4
2022-11-17T03:02:01.572Z,1003.49
2022-11-17T03:03:02.121Z,1003.43
2022-11-17T03:04:02.358Z,1003.45
2022-11-17T03:05:01.794Z,1003.38
2022-11-17T03:06:04.512Z,1003.4
2022-11-17T03:07:04.171Z,1003.38
2022-11-17T03:08:01.778Z,1003.38
2022-11-17T03:09:02.018Z,1003.33
2022-11-17T03:10:01.587Z,1003.34
2022-11-17T03:11:01.268Z,1003.35
2022-11-17T03:12:06.853Z,1003.34
2022-11-17T03:13:01.106Z,1003.36
2022-11-17T03:14:01.354Z,1003.29
2022-11-17T03:15:01.671Z,1003.35
2022-11-17T03:16:01.201Z,1003.24
2022-11-17T03:17:09.770Z,1003.29
2022-11-17T03:18:01.482Z,1003.29
2022-11-17T03:19:04.958Z,1003.31
2022-11-17T03:20:01.494Z,1003.36
2022-11-17T03:21:01.809Z,1003.28
2022-11-17T03:22:12.647Z,1003.31
2022-11-17T03:23:01.597Z,1003.34
2022-11-17T03:24:01.309Z,1003.33
2022-11-17T03:25:02.193Z,1003.32
2022-11-17T03:26:01.823Z,1003.43
2022-11-17T03:27:14.717Z,1003.44
2022-11-17T03:28:01.631Z,1003.43
2022-11-17T03:29:01.438Z,1003.47
2022-11-17T03:30:01.818Z,1003.48
2022-11-17T03:31:02.278Z,1003.49
2022-11-17T03:32:01.096Z,1003.42
2022-11-17T03:33:02.008Z,1003.47
2022-11-17T03:34:02.087Z,1003.41
2022-11-17T03:35:01.727Z,1003.45
2022-11-17T03:36:00.900Z,1003.4
2022-11-17T03:37:00.658Z,1003.4
2022-11-17T03:38:00.538Z,1003.43
2022-11-17T03:39:00.215Z,1003.42
2022-11-17T03:39:59.974Z,1003.37
2022-11-17T03:40:59.680Z,1003.37
2022-11-17T03:42:02.677Z,1003.44
2022-11-17T03:43:01.335Z,1003.44
2022-11-17T03:44:02.103Z,1003.39
2022-11-17T03:45:02.519Z,1003.38
2022-11-17T03:46:01.522Z,1003.37
2022-11-17T03:47:03.971Z,1003.36
2022-11-17T03:48:01.553Z,1003.39
2022-11-17T03:49:01.271Z,1003.3
2022-11-17T03:50:02.235Z,1003.31
2022-11-17T03:51:01.069Z,1003.34
2022-11-17T03:52:01.836Z,1003.33
2022-11-17T03:53:01.816Z,1003.28
2022-11-17T03:54:01.758Z,1003.28
2022-11-17T03:55:01.956Z,1003.33
2022-11-17T03:56:01.509Z,1003.27
2022-11-17T03:57:01.053Z,1003.27
2022-11-17T03:58:03.979Z,1003.3
2022-11-17T03:59:02.155Z,1003.36
2022-11-17T04:00:01.171Z,1003.34
2022-11-17T04:01:01.299Z,1003.35
2022-11-17T04:02:02.506Z,1003.34
2022-11-17T04:03:01.884Z,1003.34
2022-11-17T04:04:01.732Z,1003.37
2022-11-17T04:05:01.189Z,1003.36
2022-11-17T04:06:01.204Z,1003.33
2022-11-17T04:07:01.501Z,1003.37
2022-11-17T04:08:01.924Z,1003.36
2022-11-17T04:09:01.075Z,1003.3
2022-11-17T04:10:01.084Z,1003.35
2022-11-17T04:11:01.124Z,1003.38
2022-11-17T04:12:01.093Z,1003.38
2022-11-17T04:13:01.122Z,1003.37
2022-11-17T04:14:02.466Z,1003.35
2022-11-17T04:15:01.177Z,1003.27
2022-11-17T04:16:01.425Z,1003.28
2022-11-17T04:17:01.430Z,1003.3
2022-11-17T04:18:02.090Z,1003.32
2022-11-17T04:20:01.969Z,1003.27
2022-11-17T04:21:01.404Z,1003.26
2022-11-17T04:22:01.445Z,1003.19
2022-11-17T04:23:02.115Z,1003.24
2022-11-17T04:24:03.377Z,1003.2
2022-11-17T04:25:01.241Z,1003.19
2022-11-17T04:26:03.793Z,1003.16
2022-11-17T04:27:01.113Z,1003.14
2022-11-17T04:28:01.890Z,1003.11
2022-11-17T04:29:06.721Z,1003.08
2022-11-17T04:30:02.606Z,1003.17
2022-11-17T04:31:02.054Z,1003.16
2022-11-17T04:32:01.122Z,1003.16
2022-11-17T04:33:01.140Z,1003.11
2022-11-17T04:34:10.315Z,1003.12
2022-11-17T04:35:01.432Z,1003.07
2022-11-17T04:36:01.082Z,1003.11
2022-11-17T04:37:06.967Z,1003.13
2022-11-17T04:38:04.938Z,1003.08
2022-11-17T04:39:14.719Z,1003.1
2022-11-17T04:40:01.048Z,1003.09
2022-11-17T04:41:01.144Z,1003.13
2022-11-17T04:42:01.051Z,1003.13
2022-11-17T04:43:01.813Z,1003.13
2022-11-17T04:44:16.723Z,1003.13
2022-11-17T04:45:01.814Z,1003.14
2022-11-17T04:46:04.436Z,1003.08
2022-11-17T04:47:01.052Z,1003.16
2022-11-17T04:48:01.856Z,1003.12
2022-11-17T04:49:01.825Z,1003.09
2022-11-17T04:50:01.803Z,1003.07
2022-11-17T04:51:02.393Z,1003.08
2022-11-17T04:52:00.846Z,1003.13
2022-11-17T04:53:01.487Z,1003.11
2022-11-17T04:54:01.217Z,1003.12
2022-11-17T04:55:02.460Z,1003.06
2022-11-17T04:56:04.026Z,1003.08
2022-11-17T04:57:01.283Z,1003.1
2022-11-17T04:58:01.321Z,1003.14
2022-11-17T04:59:01.313Z,1003.11
2022-11-17T05:00:01.070Z,1003.09
2022-11-17T05:01:01.987Z,1003.07
2022-11-17T05:02:05.613Z,1003.07
2022-11-17T05:03:01.231Z,1003.01
2022-11-17T05:04:01.125Z,1003.03
2022-11-17T05:05:01.302Z,1003.02
2022-11-17T05:06:01.324Z,1003
2022-11-17T05:07:01.437Z,1003
2022-11-17T05:08:01.471Z,1003.04
2022-11-17T05:09:01.476Z,1003.01
2022-11-17T05:10:01.241Z,1002.99
2022-11-17T05:11:01.174Z,1002.98
2022-11-17T05:12:01.063Z,1003.01
2022-11-17T05:13:01.077Z,1002.98
2022-11-17T05:14:01.059Z,1003.03
2022-11-17T05:15:02.000Z,1003.01
2022-11-17T05:16:01.950Z,1003
2022-11-17T05:17:09.008Z,1002.94
2022-11-17T05:18:01.192Z,1002.94
2022-11-17T05:19:02.176Z,1002.93
2022-11-17T05:20:01.881Z,1002.95
2022-11-17T05:21:02.139Z,1002.91
2022-11-17T05:22:01.277Z,1002.93
2022-11-17T05:23:06.526Z,1002.94
2022-11-17T05:24:01.099Z,1002.94
2022-11-17T05:25:02.501Z,1002.91
2022-11-17T05:26:01.244Z,1002.91
2022-11-17T05:27:01.067Z,1002.92
2022-11-17T05:28:01.884Z,1002.87
2022-11-17T05:29:01.862Z,1002.9
2022-11-17T05:30:00.668Z,1002.95
2022-11-17T05:31:01.147Z,1002.88
2022-11-17T05:32:01.966Z,1002.93
2022-11-17T05:33:02.117Z,1002.99
2022-11-17T05:34:01.220Z,1002.96
2022-11-17T05:35:01.135Z,1003.01
2022-11-17T05:36:01.271Z,1003
2022-11-17T05:37:01.725Z,1002.97
2022-11-17T05:38:01.417Z,1003.05
2022-11-17T05:39:02.973Z,1003.02
2022-11-17T05:40:01.329Z,1002.98
2022-11-17T05:41:00.793Z,1003
2022-11-17T05:42:00.699Z,1002.98
2022-11-17T05:43:00.493Z,1002.97
2022-11-17T05:44:00.207Z,1002.99
2022-11-17T05:45:00.728Z,1002.98
2022-11-17T05:46:00.294Z,1003.01
2022-11-17T05:47:00.024Z,1002.93
2022-11-17T05:47:59.758Z,1003.02
2022-11-17T05:49:01.588Z,1002.98
2022-11-17T05:50:01.314Z,1002.97
2022-11-17T05:51:01.183Z,1002.94
2022-11-17T05:52:01.432Z,1002.94
2022-11-17T05:53:01.552Z,1002.89
2022-11-17T05:54:01.161Z,1002.88
2022-11-17T05:55:02.002Z,1002.87
2022-11-17T05:56:02.246Z,1002.94
2022-11-17T05:57:02.271Z,1002.86
2022-11-17T05:58:01.841Z,1002.94
2022-11-17T05:59:04.236Z,1002.89
2022-11-17T06:00:01.748Z,1002.92
2022-11-17T06:01:01.307Z,1002.9
2022-11-17T06:02:01.125Z,1002.95
2022-11-17T06:03:01.966Z,1002.96
2022-11-17T06:04:01.204Z,1002.94
2022-11-17T06:05:01.452Z,1002.9
2022-11-17T06:06:01.211Z,1002.85
2022-11-17T06:07:01.956Z,1002.87
2022-11-17T06:08:01.886Z,1002.88
2022-11-17T06:09:01.919Z,1002.89
2022-11-17T06:10:03.749Z,1002.87
2022-11-17T06:11:00.680Z,1002.94
2022-11-17T06:12:05.941Z,1002.93
2022-11-17T06:13:01.543Z,1002.92
2022-11-17T06:14:01.777Z,1002.93
2022-11-17T06:15:06.409Z,1002.94
2022-11-17T06:16:01.458Z,1002.9
2022-11-17T06:17:01.094Z,1002.92
2022-11-17T06:18:01.110Z,1002.92
2022-11-17T06:19:02.073Z,1002.85
2022-11-17T06:20:08.239Z,1002.77
2022-11-17T06:21:16.708Z,1002.8
2022-11-17T06:22:16.586Z,1002.77
2022-11-17T06:23:01.944Z,1002.85
2022-11-17T06:24:01.460Z,1002.83
2022-11-17T06:25:11.620Z,1002.77
2022-11-17T06:26:02.322Z,1002.8
2022-11-17T06:27:01.148Z,1002.79
2022-11-17T06:28:01.973Z,1002.8
2022-11-17T06:29:02.078Z,1002.8
2022-11-17T06:30:15.148Z,1002.85
2022-11-17T06:31:02.046Z,1002.8
2022-11-17T06:32:02.021Z,1002.79
2022-11-17T06:33:01.407Z,1002.81
2022-11-17T06:34:01.280Z,1002.83
2022-11-17T06:35:16.756Z,1002.78
2022-11-17T06:36:01.135Z,1002.77
2022-11-17T06:37:02.809Z,1002.78
2022-11-17T06:38:01.116Z,1002.73
2022-11-17T06:39:01.953Z,1002.74
2022-11-17T06:40:00.944Z,1002.75
2022-11-17T06:41:01.189Z,1002.75
2022-11-17T06:42:02.079Z,1002.73
2022-11-17T06:43:08.355Z,1002.74
2022-11-17T06:44:01.438Z,1002.74
2022-11-17T06:45:01.440Z,1002.67
2022-11-17T06:46:02.096Z,1002.77
2022-11-17T06:47:01.114Z,1002.76
2022-11-17T06:48:01.239Z,1002.71
2022-11-17T06:49:01.899Z,1002.72
2022-11-17T06:50:01.097Z,1002.69
2022-11-17T06:51:01.097Z,1002.69
2022-11-17T06:52:01.514Z,1002.72
2022-11-17T06:53:01.441Z,1002.7
2022-11-17T06:54:01.116Z,1002.62
2022-11-17T06:55:01.209Z,1002.64
2022-11-17T06:56:02.397Z,1002.57
2022-11-17T06:57:01.798Z,1002.6
2022-11-17T06:58:01.122Z,1002.59
2022-11-17T06:59:01.128Z,1002.61
2022-11-17T07:00:01.222Z,1002.64
2022-11-17T07:01:03.316Z,1002.62
2022-11-17T07:02:01.496Z,1002.6
2022-11-17T07:03:01.587Z,1002.63
2022-11-17T07:04:01.271Z,1002.64
2022-11-17T07:05:01.222Z,1002.63
2022-11-17T07:06:01.013Z,1002.63
2022-11-17T07:07:01.423Z,1002.57
2022-11-17T07:08:01.120Z,1002.51
2022-11-17T07:09:01.143Z,1002.54
2022-11-17T07:10:01.151Z,1002.59
2022-11-17T07:11:01.506Z,1002.54
2022-11-17T07:12:02.156Z,1002.48
2022-11-17T07:13:01.438Z,1002.56
2022-11-17T07:14:01.108Z,1002.54
2022-11-17T07:15:01.258Z,1002.58
2022-11-17T07:16:01.156Z,1002.49
2022-11-17T07:17:01.285Z,1002.59
2022-11-17T07:18:01.083Z,1002.58
2022-11-17T07:19:01.167Z,1002.51
2022-11-17T07:20:00.959Z,1002.52
2022-11-17T07:21:01.522Z,1002.53
2022-11-17T07:22:01.204Z,1002.6
2022-11-17T07:23:01.642Z,1002.55
2022-11-17T07:24:01.409Z,1002.62
2022-11-17T07:25:02.112Z,1002.56
2022-11-17T07:26:02.016Z,1002.54
2022-11-17T07:27:01.099Z,1002.62
2022-11-17T07:28:01.264Z,1002.64
2022-11-17T07:29:01.529Z,1002.56
2022-11-17T07:30:02.501Z,1002.55
2022-11-17T07:31:01.831Z,1002.48
2022-11-17T07:32:02.163Z,1002.51
2022-11-17T07:33:01.341Z,1002.6
2022-11-17T07:34:01.054Z,1002.54
2022-11-17T07:35:01.133Z,1002.51
2022-11-17T07:36:01.264Z,1002.53
2022-11-17T07:37:01.330Z,1002.52
2022-11-17T07:38:01.525Z,1002.59
2022-11-17T07:39:01.327Z,1002.6
2022-11-17T07:40:01.147Z,1002.51
2022-11-17T07:41:02.308Z,1002.56
2022-11-17T07:42:00.993Z,1002.51
2022-11-17T07:43:00.816Z,1002.57
2022-11-17T07:44:01.410Z,1002.56
2022-11-17T07:45:01.579Z,1002.59
2022-11-17T07:46:01.134Z,1002.57
2022-11-17T07:47:02.036Z,1002.57
2022-11-17T07:48:01.173Z,1002.55
2022-11-17T07:49:01.154Z,1002.58
2022-11-17T07:50:01.177Z,1002.65
2022-11-17T07:51:01.177Z,1002.57
2022-11-17T07:52:01.868Z,1002.61
2022-11-17T07:53:01.303Z,1002.67
2022-11-17T07:54:02.225Z,1002.6
2022-11-17T07:55:01.077Z,1002.54
2022-11-17T07:56:02.838Z,1002.62
2022-11-17T07:57:01.116Z,1002.63
2022-11-17T07:58:01.110Z,1002.67
2022-11-17T07:59:01.888Z,1002.65
2022-11-17T08:00:01.059Z,1002.7
2022-11-17T08:01:04.654Z,1002.69
2022-11-17T08:02:01.572Z,1002.64
2022-11-17T08:03:01.460Z,1002.69
2022-11-17T08:04:01.367Z,1002.67
2022-11-17T08:05:01.335Z,1002.65
2022-11-17T08:06:06.498Z,1002.63
2022-11-17T08:07:01.529Z,1002.66
2022-11-17T08:08:01.400Z,1002.59
2022-11-17T08:09:02.181Z,1002.58
2022-11-17T08:10:01.972Z,1002.55
2022-11-17T08:11:11.296Z,1002.58
2022-11-17T08:12:02.425Z,1002.51
2022-11-17T08:13:01.092Z,1002.61
2022-11-17T08:14:01.102Z,1002.57
2022-11-17T08:15:01.148Z,1002.51
2022-11-17T08:16:13.706Z,1002.46
2022-11-17T08:17:01.299Z,1002.5
2022-11-17T08:18:00.765Z,1002.46
2022-11-17T08:19:00.586Z,1002.43
2022-11-17T08:20:00.417Z,1002.52
2022-11-17T08:21:14.633Z,1002.45
2022-11-17T08:22:02.084Z,1002.44
2022-11-17T08:23:02.533Z,1002.42
2022-11-17T08:24:01.389Z,1002.43
2022-11-17T08:25:01.091Z,1002.4
2022-11-17T08:26:01.119Z,1002.33
2022-11-17T08:27:01.108Z,1002.34
2022-11-17T08:28:01.110Z,1002.39
2022-11-17T08:29:04.079Z,1002.37
2022-11-17T08:30:01.053Z,1002.38
2022-11-17T08:31:01.076Z,1002.33
2022-11-17T08:32:01.264Z,1002.39
2022-11-17T08:33:01.096Z,1002.37
2022-11-17T08:34:03.976Z,1002.34
2022-11-17T08:35:01.946Z,1002.36
2022-11-17T08:36:01.062Z,1002.33
2022-11-17T08:37:01.080Z,1002.28
2022-11-17T08:38:01.860Z,1002.33
2022-11-17T08:39:01.525Z,1002.28
2022-11-17T08:40:01.349Z,1002.36
2022-11-17T08:41:01.326Z,1002.32
2022-11-17T08:42:02.090Z,1002.36
2022-11-17T08:43:01.779Z,1002.38
2022-11-17T08:44:01.095Z,1002.36
2022-11-17T08:45:01.475Z,1002.35
2022-11-17T08:46:01.467Z,1002.31
2022-11-17T08:47:01.111Z,1002.36
2022-11-17T08:48:01.793Z,1002.33
2022-11-17T08:49:01.126Z,1002.43
2022-11-17T08:50:01.148Z,1002.31
2022-11-17T08:51:01.204Z,1002.37
2022-11-17T08:52:01.266Z,1002.36
2022-11-17T08:53:01.344Z,1002.35
2022-11-17T08:54:01.247Z,1002.42
2022-11-17T08:55:01.374Z,1002.32
2022-11-17T08:56:01.987Z,1002.38
2022-11-17T08:57:02.002Z,1002.33
2022-11-17T08:58:01.066Z,1002.33
2022-11-17T08:59:01.084Z,1002.39
2022-11-17T09:00:01.077Z,1002.39
2022-11-17T09:01:05.496Z,1002.41
2022-11-17T09:02:01.497Z,1002.41
2022-11-17T09:03:01.482Z,1002.43
2022-11-17T09:04:01.108Z,1002.46
2022-11-17T09:05:01.105Z,1002.34
2022-11-17T09:06:01.145Z,1002.39
2022-11-17T09:07:01.178Z,1002.44
2022-11-17T09:08:22.916Z,1002.39
2022-11-17T09:09:03.110Z,1002.4
2022-11-17T09:10:01.134Z,1002.48
2022-11-17T09:11:01.973Z,1002.47
2022-11-17T09:12:01.563Z,1002.47
2022-11-17T09:13:01.174Z,1002.5
2022-11-17T09:14:02.939Z,1002.48
2022-11-17T09:15:02.590Z,1002.47
2022-11-17T09:16:01.160Z,1002.47
2022-11-17T09:17:01.106Z,1002.45
2022-11-17T09:18:01.054Z,1002.42
2022-11-17T09:19:00.815Z,1002.42
2022-11-17T09:20:00.798Z,1002.44
2022-11-17T09:21:00.793Z,1002.35
2022-11-17T09:22:01.230Z,1002.43
2022-11-17T09:23:02.258Z,1002.38
2022-11-17T09:24:01.657Z,1002.43
2022-11-17T09:25:01.945Z,1002.42
2022-11-17T09:26:01.079Z,1002.4
2022-11-17T09:27:01.579Z,1002.42
2022-11-17T09:28:01.160Z,1002.4
2022-11-17T09:29:01.171Z,1002.43
2022-11-17T09:30:01.979Z,1002.4
2022-11-17T09:31:01.591Z,1002.42
2022-11-17T09:32:02.103Z,1002.47
2022-11-17T09:33:01.801Z,1002.46
2022-11-17T09:34:05.374Z,1002.44
2022-11-17T09:35:01.638Z,1002.43
2022-11-17T09:36:00.682Z,1002.46
2022-11-17T09:37:00.597Z,1002.46
2022-11-17T09:38:00.652Z,1002.45
2022-11-17T09:39:00.513Z,1002.45
2022-11-17T09:40:00.230Z,1002.37
2022-11-17T09:41:00.114Z,1002.46
2022-11-17T09:42:03.534Z,1002.41
2022-11-17T09:43:01.177Z,1002.47
2022-11-17T09:44:02.019Z,1002.47
2022-11-17T09:45:02.634Z,1002.42
2022-11-17T09:46:06.185Z,1002.44
2022-11-17T09:47:05.990Z,1002.45
2022-11-17T09:48:25.552Z,1002.39
2022-11-17T09:49:01.113Z,1002.39
2022-11-17T09:50:01.994Z,1002.45
2022-11-17T09:51:01.929Z,1002.33
2022-11-17T09:52:09.293Z,1002.41
2022-11-17T09:53:01.125Z,1002.4
2022-11-17T09:54:01.273Z,1002.38
2022-11-17T09:55:02.058Z,1002.3
2022-11-17T09:56:02.049Z,1002.32
2022-11-17T09:57:11.358Z,1002.39
2022-11-17T09:58:02.201Z,1002.33
2022-11-17T09:59:02.209Z,1002.32
2022-11-17T10:00:01.219Z,1002.31
2022-11-17T10:01:01.203Z,1002.41
2022-11-17T10:02:14.206Z,1002.33
2022-11-17T10:03:01.876Z,1002.32
2022-11-17T10:04:02.007Z,1002.38
2022-11-17T10:05:00.623Z,1002.3
2022-11-17T10:06:00.363Z,1002.4
2022-11-17T10:07:15.564Z,1002.4
2022-11-17T10:08:02.631Z,1002.35
2022-11-17T10:09:02.181Z,1002.4
2022-11-17T10:10:02.620Z,1002.46
2022-11-17T10:11:01.134Z,1002.47
2022-11-17T10:12:02.047Z,1002.43
2022-11-17T10:13:01.182Z,1002.46
2022-11-17T10:14:02.412Z,1002.43
2022-11-17T10:15:01.513Z,1002.47
2022-11-17T10:16:01.555Z,1002.43
2022-11-17T10:17:01.270Z,1002.48
2022-11-17T10:18:02.040Z,1002.52
2022-11-17T10:19:01.078Z,1002.45
2022-11-17T10:20:01.073Z,1002.47
2022-11-17T10:21:01.107Z,1002.47
2022-11-17T10:22:01.855Z,1002.46
2022-11-17T10:23:01.930Z,1002.44
2022-11-17T10:24:01.681Z,1002.44
2022-11-17T10:25:01.141Z,1002.48
2022-11-17T10:26:01.097Z,1002.4
2022-11-17T10:27:01.082Z,1002.41
2022-11-17T10:28:01.133Z,1002.38
2022-11-17T10:29:08.129Z,1002.39
2022-11-17T10:30:01.597Z,1002.41
2022-11-17T10:31:01.557Z,1002.33
2022-11-17T10:32:01.441Z,1002.39
2022-11-17T10:33:01.433Z,1002.32
2022-11-17T10:34:01.390Z,1002.33
2022-11-17T10:35:01.732Z,1002.29
2022-11-17T10:36:01.057Z,1002.38
2022-11-17T10:37:01.787Z,1002.34
2022-11-17T10:38:01.776Z,1002.38
2022-11-17T10:39:01.498Z,1002.32
2022-11-17T10:40:01.774Z,1002.36
2022-11-17T10:41:01.599Z,1002.38
2022-11-17T10:42:01.142Z,1002.33
2022-11-17T10:43:01.283Z,1002.3
2022-11-17T10:44:01.790Z,1002.3
2022-11-17T10:45:02.468Z,1002.31
2022-11-17T10:46:01.139Z,1002.25
2022-11-17T10:47:02.927Z,1002.29
2022-11-17T10:48:01.160Z,1002.3
2022-11-17T10:49:01.352Z,1002.26
2022-11-17T10:50:01.234Z,1002.29
2022-11-17T10:51:01.249Z,1002.26
2022-11-17T10:52:01.384Z,1002.32
2022-11-17T10:53:01.085Z,1002.32
2022-11-17T10:54:01.117Z,1002.33
2022-11-17T10:55:01.800Z,1002.17
2022-11-17T10:56:01.089Z,1002.23
2022-11-17T10:57:01.093Z,1002.25
2022-11-17T10:58:01.516Z,1002.17
2022-11-17T10:59:02.061Z,1002.27
2022-11-17T11:00:01.872Z,1002.23
2022-11-17T11:01:01.339Z,1002.19
2022-11-17T11:02:01.341Z,1002.16
2022-11-17T11:03:01.315Z,1002.16
2022-11-17T11:04:01.048Z,1002.28
2022-11-17T11:05:01.556Z,1002.11
2022-11-17T11:06:01.169Z,1002.2
2022-11-17T11:07:01.216Z,1002.23
2022-11-17T11:08:01.904Z,1002.19
2022-11-17T11:09:01.094Z,1002.15
2022-11-17T11:10:01.262Z,1002.12
2022-11-17T11:11:01.095Z,1002.14
2022-11-17T11:12:01.179Z,1002.1
2022-11-17T11:13:02.207Z,1002.03
2022-11-17T11:14:01.145Z,1002.11
2022-11-17T11:15:01.280Z,1002.01
2022-11-17T11:16:01.153Z,1001.99
2022-11-17T11:17:01.871Z,1001.99
2022-11-17T11:18:01.161Z,1001.9
2022-11-17T11:19:01.142Z,1001.92
2022-11-17T11:20:01.186Z,1001.91
2022-11-17T11:21:02.058Z,1001.91
2022-11-17T11:22:01.062Z,1001.83
2022-11-17T11:23:03.990Z,1001.77
2022-11-17T11:24:01.084Z,1001.81
2022-11-17T11:25:01.475Z,1001.76
2022-11-17T11:26:01.466Z,1001.78
2022-11-17T11:27:01.162Z,1001.71
2022-11-17T11:28:07.757Z,1001.69
2022-11-17T11:29:00.910Z,1001.76
2022-11-17T11:30:01.833Z,1001.76
2022-11-17T11:31:01.139Z,1001.75
2022-11-17T11:32:01.577Z,1001.6
2022-11-17T11:33:10.076Z,1001.57
2022-11-17T11:34:00.630Z,1001.66
2022-11-17T11:35:00.419Z,1001.57
2022-11-17T11:36:00.228Z,1001.56
2022-11-17T11:36:59.967Z,1001.56
2022-11-17T11:38:12.318Z,1001.55
2022-11-17T11:39:02.504Z,1001.6
2022-11-17T11:40:01.158Z,1001.63
2022-11-17T11:41:02.082Z,1001.62
2022-11-17T11:42:06.350Z,1001.61
2022-11-17T11:43:15.157Z,1001.54
2022-11-17T11:44:01.694Z,1001.64
2022-11-17T11:45:01.993Z,1001.54
2022-11-17T11:46:01.114Z,1001.62
2022-11-17T11:47:01.163Z,1001.54
2022-11-17T11:48:02.028Z,1001.57
2022-11-17T11:49:01.006Z,1001.62
2022-11-17T11:50:01.149Z,1001.52
2022-11-17T11:51:01.895Z,1001.56
2022-11-17T11:52:01.169Z,1001.59
2022-11-17T11:53:01.415Z,1001.5
2022-11-17T11:54:01.468Z,1001.49
2022-11-17T11:55:01.262Z,1001.51
2022-11-17T11:56:01.244Z,1001.48
2022-11-17T11:57:01.141Z,1001.49
2022-11-17T11:58:02.142Z,1001.58
2022-11-17T11:59:01.085Z,1001.49
2022-11-17T12:00:04.488Z,1001.47
2022-11-17T12:01:02.040Z,1001.49
2022-11-17T12:02:01.677Z,1001.46
2022-11-17T12:03:01.295Z,1001.53
2022-11-17T12:04:04.045Z,1001.46
2022-11-17T12:05:02.259Z,1001.41
2022-11-17T12:06:02.047Z,1001.41
2022-11-17T12:07:01.684Z,1001.48
2022-11-17T12:08:04.680Z,1001.34
2022-11-17T12:09:01.572Z,1001.33